createdAt,value
2024-01-24T00:00:46.600Z,1.25
2024-01-24T00:03:15.274Z,1.80
2024-01-24T00:05:43.668Z,1.27
2024-01-24T00:08:11.936Z,1.23
2024-01-24T00:10:40.207Z,1.30
2024-01-24T00:13:08.475Z,2.00
2024-01-24T00:15:38.210Z,1.65
2024-01-24T00:18:06.931Z,1.88
2024-01-24T00:20:35.181Z,1.23
2024-01-24T00:23:03.539Z,1.33
2024-01-24T00:25:32.876Z,1.88
2024-01-24T00:28:01.297Z,1.70
2024-01-24T00:30:31.801Z,1.58
2024-01-24T00:33:02.200Z,1.63
2024-01-24T00:35:32.885Z,1.17
2024-01-24T00:38:01.069Z,1.75
2024-01-24T00:40:30.595Z,1.50
2024-01-24T00:42:58.843Z,1.65
2024-01-24T00:45:27.127Z,1.63
2024-01-24T00:47:55.478Z,1.55
2024-01-24T00:50:25.122Z,1.65
2024-01-24T00:52:56.549Z,1.20
2024-01-24T00:55:24.780Z,1.20
2024-01-24T00:57:53.555Z,1.30
2024-01-24T01:00:21.967Z,1.60
2024-01-24T01:02:50.822Z,1.10
2024-01-24T01:05:19.375Z,1.17
2024-01-24T01:07:49.332Z,1.00
2024-01-24T01:10:18.165Z,1.10
2024-01-24T01:15:14.909Z,1.00
2024-01-24T01:17:43.263Z,1.13
2024-01-24T01:20:12.684Z,1.45
2024-01-24T01:22:42.122Z,1.13
2024-01-24T01:25:12.069Z,0.88
2024-01-24T01:27:40.407Z,0.90
2024-01-24T01:30:09.453Z,0.90
2024-01-24T01:32:40.039Z,0.63
2024-01-24T01:35:09.094Z,0.70
2024-01-24T01:37:37.426Z,0.80
2024-01-24T01:40:06.052Z,0.98
2024-01-24T01:42:35.988Z,0.73
2024-01-24T01:45:04.783Z,0.80
2024-01-24T01:47:33.756Z,0.70
2024-01-24T01:50:02.130Z,0.85
2024-01-24T01:52:31.905Z,0.93
2024-01-24T01:55:00.330Z,0.80
2024-01-24T01:57:29.023Z,0.90
2024-01-24T01:59:59.492Z,0.82
2024-01-24T02:02:27.717Z,0.55
2024-01-24T02:04:56.086Z,0.85
2024-01-24T02:07:24.412Z,0.93
2024-01-24T02:09:53.033Z,0.90
2024-01-24T02:12:21.314Z,0.90
2024-01-24T02:14:49.808Z,0.80
2024-01-24T02:17:19.425Z,0.80
2024-01-24T02:19:47.854Z,1.75
2024-01-24T02:22:16.334Z,1.40
2024-01-24T02:24:45.942Z,1.40
2024-01-24T02:27:14.741Z,1.05
2024-01-24T02:29:43.043Z,1.50
2024-01-24T02:32:11.341Z,1.15
2024-01-24T02:34:39.790Z,1.25
2024-01-24T02:37:08.204Z,1.00
2024-01-24T02:39:36.509Z,1.33
2024-01-24T02:42:06.459Z,1.80
2024-01-24T02:44:34.973Z,1.33
2024-01-24T02:47:03.278Z,1.08
2024-01-24T02:49:34.594Z,1.08
2024-01-24T02:52:03.170Z,1.10
2024-01-24T02:54:33.061Z,1.20
2024-01-24T02:57:01.318Z,1.60
2024-01-24T02:59:33.336Z,1.80
2024-01-24T03:02:01.623Z,1.20
2024-01-24T03:04:30.550Z,1.17
2024-01-24T03:06:59.062Z,1.13
2024-01-24T03:09:27.445Z,1.50
2024-01-24T03:11:55.799Z,1.60
2024-01-24T03:14:25.864Z,1.40
2024-01-24T03:16:55.515Z,1.45
2024-01-24T03:19:24.049Z,1.42
2024-01-24T03:21:55.368Z,1.90
2024-01-24T03:24:23.648Z,1.20
2024-01-24T03:26:51.915Z,1.88
2024-01-24T03:29:20.878Z,2.20
2024-01-24T03:31:49.704Z,1.73
2024-01-24T03:34:19.560Z,2.00
2024-01-24T03:36:47.976Z,1.85
2024-01-24T03:39:17.666Z,2.10
2024-01-24T03:41:46.053Z,2.45
2024-01-24T03:44:14.404Z,1.70
2024-01-24T03:46:42.786Z,1.92
2024-01-24T03:49:11.206Z,2.28
2024-01-24T03:51:40.965Z,2.10
2024-01-24T03:54:09.292Z,2.40
2024-01-24T03:56:37.512Z,2.67
2024-01-24T03:59:05.782Z,2.53
2024-01-24T04:01:34.052Z,2.47
2024-01-24T04:04:02.353Z,2.78
2024-01-24T04:06:32.848Z,3.08
2024-01-24T04:09:02.463Z,3.38
2024-01-24T04:11:33.140Z,2.53
2024-01-24T04:14:03.536Z,2.85
2024-01-24T04:16:36.629Z,4.45
2024-01-24T04:19:05.102Z,3.33
2024-01-24T04:21:33.660Z,3.58
2024-01-24T04:24:03.296Z,3.45
2024-01-24T04:26:32.430Z,4.22
2024-01-24T04:29:00.780Z,4.07
2024-01-24T04:31:32.052Z,3.85
2024-01-24T04:34:00.428Z,4.45
2024-01-24T04:36:28.724Z,4.80
2024-01-24T04:38:57.033Z,4.40
2024-01-24T04:41:26.573Z,4.65
2024-01-24T04:43:54.818Z,5.00
2024-01-24T04:46:23.081Z,4.63
2024-01-24T04:48:51.826Z,4.72
2024-01-24T04:51:20.114Z,5.13
2024-01-24T04:53:48.488Z,5.15
2024-01-24T04:56:17.968Z,5.93
2024-01-24T04:58:47.964Z,5.20
2024-01-24T05:01:16.683Z,5.15
2024-01-24T05:03:46.141Z,4.95
2024-01-24T05:06:14.971Z,6.03
2024-01-24T05:08:43.400Z,6.18
2024-01-24T05:11:11.953Z,6.30
2024-01-24T05:13:40.998Z,7.07
2024-01-24T05:16:10.672Z,4.82
2024-01-24T05:18:39.270Z,5.70
2024-01-24T05:21:07.589Z,6.47
2024-01-24T05:23:35.836Z,5.80
2024-01-24T05:26:04.122Z,5.63
2024-01-24T05:28:35.150Z,5.47
2024-01-24T05:31:04.055Z,7.20
2024-01-24T05:33:35.158Z,6.53
2024-01-24T05:36:03.933Z,6.03
2024-01-24T05:38:36.316Z,6.82
2024-01-24T05:41:04.628Z,6.97
2024-01-24T05:43:33.931Z,6.70
2024-01-24T05:46:02.208Z,7.30
2024-01-24T05:48:31.893Z,7.20
2024-01-24T05:51:01.606Z,7.70
2024-01-24T05:53:30.527Z,9.00
2024-01-24T05:55:58.776Z,6.97
2024-01-24T05:58:27.039Z,8.35
2024-01-24T06:00:55.802Z,7.13
2024-01-24T06:03:24.092Z,8.52
2024-01-24T06:05:56.233Z,9.37
2024-01-24T06:08:26.185Z,8.13
2024-01-24T06:10:54.579Z,7.63
2024-01-24T06:13:22.885Z,7.50
2024-01-24T06:15:51.210Z,8.87
2024-01-24T06:18:19.599Z,9.93
2024-01-24T06:20:48.292Z,8.02
2024-01-24T06:23:16.691Z,8.48
2024-01-24T06:25:46.291Z,9.13
2024-01-24T06:28:15.304Z,8.82
2024-01-24T06:30:43.635Z,8.43
2024-01-24T06:33:11.909Z,8.85
2024-01-24T06:35:40.226Z,7.73
2024-01-24T06:38:08.494Z,7.57
2024-01-24T06:40:36.769Z,7.32
2024-01-24T06:43:06.690Z,7.90
2024-01-24T06:45:35.161Z,8.70
2024-01-24T06:48:03.539Z,8.40
2024-01-24T06:50:32.557Z,7.47
2024-01-24T06:53:00.843Z,8.23
2024-01-24T06:55:30.493Z,8.65
2024-01-24T06:57:58.848Z,6.73
2024-01-24T07:00:31.823Z,8.17
2024-01-24T07:03:00.658Z,8.87
2024-01-24T07:05:30.677Z,7.90
2024-01-24T07:07:59.088Z,7.40
2024-01-24T07:10:27.371Z,8.53
2024-01-24T07:12:56.967Z,8.20
2024-01-24T07:15:25.314Z,7.97
2024-01-24T07:17:56.965Z,9.20
2024-01-24T07:20:25.321Z,7.30
2024-01-24T07:22:53.586Z,9.93
2024-01-24T07:25:22.299Z,7.27
2024-01-24T07:27:54.670Z,7.77
2024-01-24T07:30:23.485Z,7.93
2024-01-24T07:32:52.694Z,7.23
2024-01-24T07:35:22.311Z,8.23
2024-01-24T07:37:50.876Z,8.37
2024-01-24T07:40:19.469Z,8.57
2024-01-24T07:42:47.600Z,8.37
2024-01-24T07:45:16.668Z,7.07
2024-01-24T07:47:45.831Z,9.07
2024-01-24T07:50:14.386Z,8.23
2024-01-24T07:52:44.569Z,8.67
2024-01-24T07:55:13.536Z,6.83
2024-01-24T07:57:42.544Z,8.57
2024-01-24T08:00:17.400Z,8.07
2024-01-24T08:02:46.074Z,7.40
2024-01-24T08:05:17.724Z,7.20
2024-01-24T08:07:47.268Z,9.80
2024-01-24T08:10:16.777Z,8.27
2024-01-24T08:12:45.735Z,7.47
2024-01-24T08:15:13.806Z,8.10
2024-01-24T08:17:41.945Z,7.50
2024-01-24T08:20:10.999Z,8.40
2024-01-24T08:22:38.953Z,7.50
2024-01-24T08:25:09.752Z,6.93
2024-01-24T08:27:37.910Z,8.00
2024-01-24T08:30:07.915Z,7.87
2024-01-24T08:32:41.476Z,8.37
2024-01-24T08:35:10.441Z,7.23
2024-01-24T08:37:38.900Z,7.53
2024-01-24T08:40:11.306Z,8.90
2024-01-24T08:42:41.647Z,7.73
2024-01-24T08:45:10.539Z,7.00
2024-01-24T08:47:38.796Z,7.27
2024-01-24T08:50:08.033Z,8.27
2024-01-24T08:52:36.423Z,8.57
2024-01-24T08:55:04.891Z,6.83
2024-01-24T08:57:37.795Z,7.80
2024-01-24T09:00:08.565Z,8.67
2024-01-24T09:02:37.452Z,7.13
2024-01-24T09:05:06.459Z,6.97
2024-01-24T09:07:34.632Z,7.70
2024-01-24T09:10:04.982Z,6.77
2024-01-24T09:12:33.487Z,7.37
2024-01-24T09:15:04.596Z,6.85
2024-01-24T09:17:35.001Z,7.30
2024-01-24T09:20:03.511Z,7.70
2024-01-24T09:22:34.714Z,7.80
2024-01-24T09:25:06.268Z,7.43
2024-01-24T09:27:36.169Z,7.23
2024-01-24T09:30:06.847Z,6.73
2024-01-24T09:32:34.926Z,6.90
2024-01-24T09:35:03.489Z,7.10
2024-01-24T09:37:32.982Z,7.90
2024-01-24T09:40:01.052Z,7.47
2024-01-24T09:42:31.711Z,7.00
2024-01-24T09:45:00.492Z,8.13
2024-01-24T09:47:30.634Z,8.13
2024-01-24T09:50:00.350Z,6.65
2024-01-24T09:52:30.634Z,7.18
2024-01-24T09:55:00.823Z,7.03
2024-01-24T09:57:31.763Z,6.70
2024-01-24T10:00:00.099Z,7.20
2024-01-24T10:02:31.808Z,7.23
2024-01-24T10:05:01.298Z,6.60
2024-01-24T10:07:32.233Z,8.30
2024-01-24T10:10:10.777Z,7.93
2024-01-24T10:12:39.134Z,8.60
2024-01-24T10:15:08.632Z,7.47
2024-01-24T10:17:37.987Z,8.40
2024-01-24T10:20:07.656Z,7.75
2024-01-24T10:22:35.757Z,7.85
2024-01-24T10:25:03.895Z,8.98
2024-01-24T10:27:35.657Z,7.68
2024-01-24T10:30:04.618Z,7.50
2024-01-24T10:32:35.925Z,9.07
2024-01-24T10:35:07.106Z,7.88
2024-01-24T10:37:36.736Z,8.90
2024-01-24T10:40:07.721Z,8.70
2024-01-24T10:42:38.257Z,7.10
2024-01-24T10:45:07.518Z,7.85
2024-01-24T10:47:36.165Z,8.82
2024-01-24T10:50:09.138Z,8.77
2024-01-24T10:52:39.667Z,9.23
2024-01-24T10:55:12.262Z,7.80
2024-01-24T10:57:42.440Z,7.67
2024-01-24T11:00:12.238Z,8.75
2024-01-24T11:02:43.338Z,8.65
2024-01-24T11:05:19.639Z,8.23
2024-01-24T11:07:57.329Z,8.65
2024-01-24T11:10:33.275Z,8.43
2024-01-24T11:13:02.847Z,8.30
2024-01-24T11:15:33.505Z,6.60
2024-01-24T11:18:20.812Z,7.28
2024-01-24T11:20:52.845Z,7.45
2024-01-24T11:23:42.349Z,8.07
2024-01-24T11:26:14.703Z,7.53
2024-01-24T11:28:42.822Z,7.85
2024-01-24T11:31:12.105Z,6.85
2024-01-24T11:34:09.577Z,7.00
2024-01-24T11:36:47.159Z,7.85
2024-01-24T11:39:34.715Z,6.82
2024-01-24T11:42:38.493Z,7.93
2024-01-24T11:45:18.526Z,7.15
2024-01-24T11:47:47.098Z,6.80
2024-01-24T11:50:18.587Z,7.68
2024-01-24T11:52:51.425Z,7.63
2024-01-24T11:55:20.928Z,7.43
2024-01-24T11:57:49.082Z,6.55
2024-01-24T12:00:18.534Z,6.72
2024-01-24T12:02:49.765Z,7.13
2024-01-24T12:05:19.334Z,6.18
2024-01-24T12:07:48.717Z,6.38
2024-01-24T12:10:18.295Z,5.78
2024-01-24T12:12:46.550Z,5.57
2024-01-24T12:15:14.705Z,6.22
2024-01-24T12:17:42.844Z,6.47
2024-01-24T12:20:25.950Z,5.85
2024-01-24T12:22:55.660Z,6.10
2024-01-24T12:25:24.085Z,7.00
2024-01-24T12:27:52.836Z,6.63
2024-01-24T12:30:22.134Z,5.90
2024-01-24T12:32:50.918Z,6.47
2024-01-24T12:35:21.094Z,6.32
2024-01-24T12:37:53.060Z,6.50
2024-01-24T12:40:23.541Z,5.82
2024-01-24T12:42:54.578Z,6.40
2024-01-24T12:45:25.819Z,6.05
2024-01-24T12:47:55.189Z,5.43
2024-01-24T12:50:23.974Z,6.07
2024-01-24T12:52:52.480Z,6.15
2024-01-24T12:55:22.307Z,5.65
2024-01-24T12:57:51.289Z,5.82
2024-01-24T13:00:19.598Z,6.10
2024-01-24T13:02:47.769Z,6.30
2024-01-24T13:05:16.023Z,5.47
2024-01-24T13:07:44.240Z,5.95
2024-01-24T13:10:13.550Z,5.57
2024-01-24T13:12:44.955Z,6.05
2024-01-24T13:15:13.272Z,5.90
2024-01-24T13:17:41.229Z,5.22
2024-01-24T13:20:10.574Z,5.50
2024-01-24T13:22:38.673Z,5.80
2024-01-24T13:25:07.391Z,5.32
2024-01-24T13:27:35.320Z,6.15
2024-01-24T13:30:05.216Z,5.22
2024-01-24T13:32:34.444Z,5.32
2024-01-24T13:35:02.410Z,5.63
2024-01-24T13:37:33.093Z,5.63
2024-01-24T13:40:01.894Z,6.15
2024-01-24T13:42:30.568Z,6.05
2024-01-24T13:44:58.597Z,6.43
2024-01-24T13:47:28.916Z,5.13
2024-01-24T13:49:57.833Z,5.25
2024-01-24T13:52:25.989Z,5.20
2024-01-24T13:54:54.234Z,5.57
2024-01-24T13:57:23.464Z,6.00
2024-01-24T13:59:54.644Z,5.07
2024-01-24T14:02:22.708Z,5.57
2024-01-24T14:04:54.599Z,6.38
2024-01-24T14:07:22.826Z,5.97
2024-01-24T14:09:53.329Z,5.13
2024-01-24T14:12:21.361Z,6.03
2024-01-24T14:14:50.750Z,4.65
2024-01-24T14:17:19.192Z,5.10
2024-01-24T14:19:47.306Z,6.28
2024-01-24T14:22:17.566Z,6.10
2024-01-24T14:24:45.892Z,5.43
2024-01-24T14:27:15.745Z,5.85
2024-01-24T14:29:46.950Z,4.90
2024-01-24T14:32:15.791Z,6.20
2024-01-24T14:34:43.754Z,5.85
2024-01-24T14:37:11.869Z,4.90
2024-01-24T14:39:41.700Z,5.30
2024-01-24T14:42:10.432Z,5.10
2024-01-24T14:44:38.331Z,5.17
2024-01-24T14:47:06.655Z,6.15
2024-01-24T14:49:34.853Z,5.50
2024-01-24T14:52:03.835Z,5.37
2024-01-24T14:54:33.717Z,4.50
2024-01-24T14:57:02.327Z,5.23
2024-01-24T14:59:32.571Z,5.55
2024-01-24T15:02:00.732Z,5.87
2024-01-24T15:04:28.829Z,5.78
2024-01-24T15:06:56.869Z,6.03
2024-01-24T15:09:24.872Z,6.53
2024-01-24T15:11:53.066Z,5.73
2024-01-24T15:14:22.410Z,5.82
2024-01-24T15:16:51.097Z,6.18
2024-01-24T15:19:19.094Z,5.77
2024-01-24T15:21:47.475Z,5.63
2024-01-24T15:24:16.069Z,6.45
2024-01-24T15:26:44.233Z,6.30
2024-01-24T15:29:12.590Z,6.13
2024-01-24T15:31:41.924Z,5.53
2024-01-24T15:34:11.769Z,5.83
2024-01-24T15:36:40.732Z,5.40
2024-01-24T15:39:12.915Z,5.87
2024-01-24T15:41:42.156Z,6.43
2024-01-24T15:44:10.344Z,5.97
2024-01-24T15:46:38.337Z,6.40
2024-01-24T15:49:07.754Z,6.03
2024-01-24T15:51:36.033Z,6.20
2024-01-24T15:54:04.183Z,6.47
2024-01-24T15:56:33.594Z,5.97
2024-01-24T15:59:01.676Z,6.30
2024-01-24T16:01:30.860Z,5.67
2024-01-24T16:03:59.460Z,5.77
2024-01-24T16:06:29.060Z,6.43
2024-01-24T16:08:57.980Z,6.73
2024-01-24T16:11:26.049Z,7.57
2024-01-24T16:13:54.653Z,6.47
2024-01-24T16:16:22.701Z,8.50
2024-01-24T16:18:53.005Z,6.53
2024-01-24T16:21:21.755Z,6.57
2024-01-24T16:23:52.943Z,6.43
2024-01-24T16:26:20.801Z,6.70
2024-01-24T16:28:48.835Z,7.47
2024-01-24T16:31:18.234Z,6.30
2024-01-24T16:33:46.750Z,5.60
2024-01-24T16:36:14.900Z,6.30
2024-01-24T16:38:43.050Z,5.70
2024-01-24T16:41:12.433Z,6.80
2024-01-24T16:43:40.453Z,6.40
2024-01-24T16:46:08.455Z,6.00
2024-01-24T16:48:36.951Z,6.50
2024-01-24T16:51:05.369Z,5.67
2024-01-24T16:53:37.338Z,6.70
2024-01-24T16:56:06.253Z,6.13
2024-01-24T16:58:35.570Z,5.83
2024-01-24T17:01:04.586Z,5.80
2024-01-24T17:03:33.473Z,6.33
2024-01-24T17:06:02.588Z,5.83
2024-01-24T17:08:31.739Z,6.00
2024-01-24T17:11:00.803Z,6.20
2024-01-24T17:13:28.748Z,5.90
2024-01-24T17:15:58.004Z,6.40
2024-01-24T17:18:27.937Z,6.37
2024-01-24T17:20:55.960Z,6.47
2024-01-24T17:23:23.895Z,5.87
2024-01-24T17:25:52.376Z,6.40
2024-01-24T17:28:20.506Z,5.33
2024-01-24T17:30:48.902Z,6.13
2024-01-24T17:33:18.887Z,5.40
2024-01-24T17:35:47.352Z,7.03
2024-01-24T17:38:16.317Z,6.00
2024-01-24T17:40:44.662Z,5.67
2024-01-24T17:43:12.835Z,5.87
2024-01-24T17:45:40.997Z,5.40
2024-01-24T17:48:09.790Z,5.80
2024-01-24T17:50:39.153Z,6.53
2024-01-24T17:53:07.125Z,6.23
2024-01-24T17:55:35.204Z,5.87
2024-01-24T17:58:03.437Z,5.77
2024-01-24T18:00:32.980Z,6.20
2024-01-24T18:03:01.942Z,7.57
2024-01-24T18:05:30.585Z,6.90
2024-01-24T18:08:02.688Z,7.20
2024-01-24T18:10:31.786Z,7.07
2024-01-24T18:12:59.746Z,6.07
2024-01-24T18:15:27.821Z,6.90
2024-01-24T18:17:56.525Z,7.33
2024-01-24T18:20:24.855Z,8.47
2024-01-24T18:22:52.751Z,7.63
2024-01-24T18:25:22.230Z,7.37
2024-01-24T18:27:50.694Z,6.83
2024-01-24T18:30:18.978Z,8.53
2024-01-24T18:32:47.744Z,8.20
2024-01-24T18:35:16.638Z,8.03
2024-01-24T18:37:44.588Z,6.03
2024-01-24T18:40:13.925Z,8.93
2024-01-24T18:42:43.531Z,6.83
2024-01-24T18:45:13.664Z,7.17
2024-01-24T18:47:41.892Z,6.03
2024-01-24T18:50:11.157Z,7.27
2024-01-24T18:52:39.360Z,8.23
2024-01-24T18:55:11.514Z,7.37
2024-01-24T18:57:39.446Z,7.00
2024-01-24T19:00:10.720Z,7.07
2024-01-24T19:02:38.933Z,7.60
2024-01-24T19:05:10.067Z,7.37
2024-01-24T19:07:39.629Z,7.43
2024-01-24T19:10:08.369Z,6.57
2024-01-24T19:12:36.389Z,7.20
2024-01-24T19:15:04.826Z,6.50
2024-01-24T19:17:34.753Z,5.97
2024-01-24T19:20:03.501Z,6.73
2024-01-24T19:22:34.403Z,6.20
2024-01-24T19:25:05.657Z,6.93
2024-01-24T19:27:33.781Z,6.50
2024-01-24T19:30:01.903Z,7.13
2024-01-24T19:32:30.735Z,5.77
2024-01-24T19:35:02.045Z,6.93
2024-01-24T19:37:30.697Z,7.57
2024-01-24T19:39:58.687Z,6.20
2024-01-24T19:42:28.143Z,6.07
2024-01-24T19:44:56.256Z,6.17
2024-01-24T19:47:28.888Z,6.17
2024-01-24T19:49:59.446Z,5.97
2024-01-24T19:52:27.425Z,6.40
2024-01-24T19:54:55.473Z,6.57
2024-01-24T19:57:23.528Z,6.13
2024-01-24T19:59:51.893Z,5.80
2024-01-24T20:02:19.786Z,6.30
2024-01-24T20:04:47.685Z,6.57
2024-01-24T20:07:17.592Z,6.33
2024-01-24T20:09:45.697Z,7.30
2024-01-24T20:12:13.774Z,7.20
2024-01-24T20:14:41.794Z,5.27
2024-01-24T20:17:09.782Z,5.70
2024-01-24T20:19:37.859Z,5.53
2024-01-24T20:22:06.307Z,5.50
2024-01-24T20:24:35.741Z,5.63
2024-01-24T20:27:03.864Z,5.57
2024-01-24T20:29:33.654Z,5.33
2024-01-24T20:32:04.143Z,6.00
2024-01-24T20:34:33.755Z,5.37
2024-01-24T20:37:03.405Z,7.83
2024-01-24T20:39:35.272Z,5.30
2024-01-24T20:42:10.800Z,5.17
2024-01-24T20:44:42.039Z,6.00
2024-01-24T20:47:10.817Z,6.13
2024-01-24T20:49:38.815Z,5.43
2024-01-24T20:52:07.758Z,6.30
2024-01-24T20:54:36.502Z,7.50
2024-01-24T20:57:06.206Z,6.80
2024-01-24T20:59:34.416Z,5.83
2024-01-24T21:02:02.797Z,5.53
2024-01-24T21:04:31.755Z,7.00
2024-01-24T21:07:00.211Z,6.70
2024-01-24T21:09:28.272Z,5.10
2024-01-24T21:11:57.535Z,6.13
2024-01-24T21:14:26.860Z,5.63
2024-01-24T21:16:54.863Z,5.87
2024-01-24T21:19:25.730Z,6.70
2024-01-24T21:21:54.278Z,6.27
2024-01-24T21:24:23.031Z,6.53
2024-01-24T21:26:51.389Z,5.60
2024-01-24T21:29:19.483Z,6.20
2024-01-24T21:31:48.992Z,6.40
2024-01-24T21:34:18.317Z,6.40
2024-01-24T21:36:48.599Z,5.40
2024-01-24T21:39:18.487Z,5.97
2024-01-24T21:41:52.049Z,6.70
2024-01-24T21:44:20.001Z,6.20
2024-01-24T21:46:51.773Z,6.57
2024-01-24T21:49:19.775Z,5.70
2024-01-24T21:51:47.966Z,5.67
2024-01-24T21:54:17.494Z,5.23
2024-01-24T21:56:46.041Z,6.03
2024-01-24T21:59:14.031Z,5.87
2024-01-24T22:01:42.243Z,6.17
2024-01-24T22:04:11.747Z,5.77
2024-01-24T22:06:39.881Z,5.30
2024-01-24T22:09:08.357Z,5.73
2024-01-24T22:11:36.851Z,5.47
2024-01-24T22:14:06.463Z,5.10
2024-01-24T22:16:34.405Z,5.83
2024-01-24T22:19:02.544Z,4.93
2024-01-24T22:21:33.630Z,4.67
2024-01-24T22:24:01.638Z,4.97
2024-01-24T22:26:30.701Z,5.47
2024-01-24T22:28:58.802Z,5.27
2024-01-24T22:31:26.816Z,4.80
2024-01-24T22:33:54.957Z,4.63
2024-01-24T22:36:23.072Z,5.33
2024-01-24T22:38:52.505Z,4.80
2024-01-24T22:41:20.412Z,4.03
2024-01-24T22:43:48.392Z,4.83
2024-01-24T22:46:16.327Z,4.47
2024-01-24T22:48:44.418Z,5.43
2024-01-24T22:51:13.226Z,5.27
2024-01-24T22:53:41.808Z,5.43
2024-01-24T22:56:11.363Z,5.37
2024-01-24T22:58:39.294Z,4.63
2024-01-24T23:01:07.477Z,4.57
2024-01-24T23:03:35.723Z,4.87
2024-01-24T23:06:03.655Z,4.50
2024-01-24T23:08:34.371Z,5.00
2024-01-24T23:11:02.453Z,5.23
2024-01-24T23:13:34.349Z,5.23
2024-01-24T23:16:02.344Z,4.63
2024-01-24T23:18:31.872Z,4.90
2024-01-24T23:21:00.365Z,4.13
2024-01-24T23:23:28.369Z,5.30
2024-01-24T23:25:56.295Z,5.30
2024-01-24T23:28:24.425Z,5.23
2024-01-24T23:30:53.911Z,6.00
2024-01-24T23:33:22.038Z,5.03
2024-01-24T23:35:53.217Z,6.47
2024-01-24T23:38:21.175Z,5.30
2024-01-24T23:40:52.038Z,5.20
2024-01-24T23:43:20.418Z,4.80
2024-01-24T23:45:49.741Z,5.17
2024-01-24T23:48:19.223Z,5.40
2024-01-24T23:50:47.844Z,4.80
2024-01-24T23:53:15.901Z,4.87
2024-01-24T23:55:43.827Z,4.53
2024-01-24T23:58:11.891Z,5.03
